Time;durP1;ratioP1;P1;durP2;ratioP2;P2;SDS_P1;SDS_P2;PMS_P1;PMS_P2;Temp;Humidity;BMP_temperature;BMP_pressure;BME280_temperature;BME280_humidity;BME280_pressure;Samples;Min_cycle;Max_cycle;Signal;HPM_P1;HPM_P2
2024/03/14 00:00:16;;;;;;;0.10;0.10;;;;;;;;;;5093415;28;20115;-90
2024/03/14 00:02:45;;;;;;;0.17;0.17;;;;;;;;;;5061883;28;20082;-88
2024/03/14 00:05:11;;;;;;;0.10;0.10;;;;;;;;;;5093798;28;20494;-89
2024/03/14 00:07:37;;;;;;;0.10;0.10;;;;;;;;;;5060060;28;20035;-89
2024/03/14 00:10:06;;;;;;;0.20;0.20;;;;;;;;;;5093433;28;20043;-89
2024/03/14 00:12:33;;;;;;;0.10;0.10;;;;;;;;;;5077682;28;20044;-89
2024/03/14 00:14:59;;;;;;;0.10;0.10;;;;;;;;;;5060674;28;20391;-90
2024/03/14 00:17:26;;;;;;;0.20;0.20;;;;;;;;;;5076647;28;20578;-89
2024/03/14 00:19:52;;;;;;;0.20;0.20;;;;;;;;;;5059948;28;20417;-88
2024/03/14 00:22:18;;;;;;;0.10;0.10;;;;;;;;;;5076713;28;20521;-89
2024/03/14 00:24:45;;;;;;;0.10;0.10;;;;;;;;;;5060511;28;20032;-89
2024/03/14 00:27:13;;;;;;;0.17;0.17;;;;;;;;;;5059760;28;20054;-89
2024/03/14 00:29:41;;;;;;;0.10;0.10;;;;;;;;;;5076292;28;20498;-89
2024/03/14 00:32:07;;;;;;;0.10;0.10;;;;;;;;;;5059938;28;20114;-88
2024/03/14 00:34:34;;;;;;;0.10;0.10;;;;;;;;;;5076355;28;20144;-90
2024/03/14 00:37:01;;;;;;;0.30;0.30;;;;;;;;;;5059697;28;20080;-89
2024/03/14 00:39:27;;;;;;;0.10;0.10;;;;;;;;;;5092961;28;20075;-89
2024/03/14 00:41:53;;;;;;;0.10;0.10;;;;;;;;;;5076056;28;20043;-88
2024/03/14 00:44:19;;;;;;;0.10;0.10;;;;;;;;;;5076338;28;20541;-89
2024/03/14 00:46:45;;;;;;;0.10;0.10;;;;;;;;;;5076213;28;20047;-90
2024/03/14 00:49:11;;;;;;;0.20;0.20;;;;;;;;;;5076134;28;20036;-87
2024/03/14 00:51:37;;;;;;;0.55;0.20;;;;;;;;;;5092476;28;20044;-88
2024/03/14 00:54:04;;;;;;;0.10;0.10;;;;;;;;;;5058991;28;20093;-88
2024/03/14 00:56:30;;;;;;;0.20;0.20;;;;;;;;;;5059259;28;20096;-89
2024/03/14 00:58:58;;;;;;;0.10;0.10;;;;;;;;;;5075731;28;20051;-89
2024/03/14 01:01:25;;;;;;;0.10;0.10;;;;;;;;;;5092410;28;20491;-90
2024/03/14 01:03:54;;;;;;;0.20;0.20;;;;;;;;;;5075569;28;20048;-89
2024/03/14 01:06:21;;;;;;;0.10;0.10;;;;;;;;;;5059372;28;20122;-89
2024/03/14 01:08:48;;;;;;;0.10;0.10;;;;;;;;;;5059421;28;20052;-89
2024/03/14 01:11:18;;;;;;;0.10;0.10;;;;;;;;;;5042834;28;20074;-88
2024/03/14 01:13:44;;;;;;;0.10;0.10;;;;;;;;;;5092153;28;20047;-88
2024/03/14 01:16:10;;;;;;;0.20;0.20;;;;;;;;;;5058851;28;20070;-89
2024/03/14 01:18:36;;;;;;;0.82;0.25;;;;;;;;;;5075196;28;20047;-89
2024/03/14 01:21:07;;;;;;;0.80;0.40;;;;;;;;;;5058619;28;20040;-88
2024/03/14 01:23:34;;;;;;;0.10;0.10;;;;;;;;;;5059574;28;20092;-90
2024/03/14 01:26:00;;;;;;;0.50;0.50;;;;;;;;;;5092825;28;20388;-89
2024/03/14 01:28:29;;;;;;;0.30;0.30;;;;;;;;;;5075821;28;20502;-91
2024/03/14 01:30:58;;;;;;;0.10;0.10;;;;;;;;;;5059432;28;20143;-89
2024/03/14 01:33:24;;;;;;;0.20;0.20;;;;;;;;;;5059240;28;20040;-91
2024/03/14 01:35:54;;;;;;;0.10;0.10;;;;;;;;;;5075683;28;20487;-91
2024/03/14 01:38:20;;;;;;;0.15;0.15;;;;;;;;;;5059350;28;20040;-90
2024/03/14 01:40:47;;;;;;;0.10;0.10;;;;;;;;;;5059112;28;20047;-90
2024/03/14 01:43:13;;;;;;;0.20;0.20;;;;;;;;;;5075617;28;20047;-90
2024/03/14 01:45:40;;;;;;;0.10;0.10;;;;;;;;;;5058636;28;20502;-89
2024/03/14 01:48:06;;;;;;;0.10;0.10;;;;;;;;;;5075524;28;20044;-89
2024/03/14 01:50:32;;;;;;;0.20;0.20;;;;;;;;;;5058500;28;20126;-90
2024/03/14 01:52:59;;;;;;;0.10;0.10;;;;;;;;;;5075298;28;20040;-90
2024/03/14 01:55:25;;;;;;;0.10;0.10;;;;;;;;;;5058716;28;20495;-90
2024/03/14 01:57:51;;;;;;;0.10;0.10;;;;;;;;;;5075222;28;20040;-89
2024/03/14 02:00:18;;;;;;;0.10;0.10;;;;;;;;;;5075019;28;20047;-90
2024/03/14 02:02:45;;;;;;;0.20;0.20;;;;;;;;;;5058377;28;20142;-90
2024/03/14 02:05:26;;;;;;;0.10;0.10;;;;;;;;;;5058310;28;20044;-89
2024/03/14 02:07:52;;;;;;;0.10;0.10;;;;;;;;;;5091926;28;20075;-88
2024/03/14 02:10:23;;;;;;;0.45;0.38;;;;;;;;;;5074876;28;20044;-89
2024/03/14 02:12:53;;;;;;;0.10;0.10;;;;;;;;;;5058991;28;20055;-89
2024/03/14 02:15:19;;;;;;;0.10;0.10;;;;;;;;;;5075277;28;20107;-88
2024/03/14 02:17:45;;;;;;;0.10;0.10;;;;;;;;;;5074598;28;20036;-89
2024/03/14 02:20:14;;;;;;;0.10;0.10;;;;;;;;;;5057707;28;20047;-89
2024/03/14 02:22:47;;;;;;;0.20;0.20;;;;;;;;;;5074921;28;20580;-88
2024/03/14 02:25:14;;;;;;;;;;;;;;;;;;5064498;28;20036;-88
2024/03/14 02:27:40;;;;;;;0.30;0.30;;;;;;;;;;5081067;28;19915;-88
2024/03/14 02:30:07;;;;;;;0.13;0.13;;;;;;;;;;5080945;28;20040;-88
2024/03/14 02:32:33;;;;;;;0.10;0.10;;;;;;;;;;5064521;28;20044;-89
2024/03/14 02:35:02;;;;;;;0.10;0.10;;;;;;;;;;5081187;28;20101;-89
2024/03/14 02:37:31;;;;;;;0.30;0.30;;;;;;;;;;5064446;28;20487;-88
2024/03/14 02:39:57;;;;;;;0.10;0.10;;;;;;;;;;5064736;28;20079;-91
2024/03/14 02:42:24;;;;;;;0.10;0.10;;;;;;;;;;5081623;28;20032;-88
2024/03/14 02:44:50;;;;;;;0.10;0.10;;;;;;;;;;5081691;28;20461;-89
2024/03/14 02:47:17;;;;;;;0.20;0.20;;;;;;;;;;5064965;28;20077;-89
2024/03/14 02:49:43;;;;;;;0.20;0.20;;;;;;;;;;5081146;28;20503;-92
2024/03/14 02:52:09;;;;;;;0.20;0.20;;;;;;;;;;5081465;28;20445;-89
2024/03/14 02:54:36;;;;;;;0.10;0.10;;;;;;;;;;5065202;28;20040;-91
2024/03/14 02:57:02;;;;;;;0.10;0.10;;;;;;;;;;5081623;28;20039;-90
2024/03/14 02:59:30;;;;;;;0.20;0.20;;;;;;;;;;5064985;28;20040;-90
2024/03/14 03:01:58;;;;;;;0.10;0.10;;;;;;;;;;5081485;28;20503;-91
2024/03/14 03:04:24;;;;;;;0.10;0.10;;;;;;;;;;5081756;28;20036;-91
2024/03/14 03:06:54;;;;;;;0.10;0.10;;;;;;;;;;5081318;28;20055;-90
2024/03/14 03:09:21;;;;;;;0.10;0.10;;;;;;;;;;5081927;28;20055;-90
2024/03/14 03:11:47;;;;;;;0.10;0.10;;;;;;;;;;5064528;28;20040;-90
2024/03/14 03:14:13;;;;;;;0.10;0.10;;;;;;;;;;5064410;28;20043;-90
2024/03/14 03:16:39;;;;;;;0.25;0.25;;;;;;;;;;5080996;28;20048;-91
2024/03/14 03:19:05;;;;;;;0.75;0.30;;;;;;;;;;5064258;28;20052;-91
2024/03/14 03:21:32;;;;;;;0.20;0.20;;;;;;;;;;5081142;28;20040;-89
2024/03/14 03:23:58;;;;;;;0.40;0.30;;;;;;;;;;5064126;28;20081;-90
2024/03/14 03:26:25;;;;;;;0.10;0.10;;;;;;;;;;5081137;28;20093;-89
2024/03/14 03:28:51;;;;;;;0.10;0.10;;;;;;;;;;5064366;28;20040;-89
2024/03/14 03:31:17;;;;;;;0.20;0.20;;;;;;;;;;5064383;28;20122;-90
2024/03/14 03:33:43;;;;;;;0.45;0.45;;;;;;;;;;5063833;28;20553;-90
2024/03/14 03:36:09;;;;;;;0.30;0.30;;;;;;;;;;5060823;28;20064;-89
2024/03/14 03:38:39;;;;;;;0.20;0.20;;;;;;;;;;5077209;28;20044;-88
2024/03/14 03:41:09;;;;;;;0.90;0.40;;;;;;;;;;5077589;28;20036;-89
2024/03/14 03:43:36;;;;;;;0.10;0.10;;;;;;;;;;5061273;28;20510;-88
2024/03/14 03:46:02;;;;;;;0.20;0.20;;;;;;;;;;5060960;28;20512;-89
2024/03/14 03:48:28;;;;;;;0.10;0.10;;;;;;;;;;5060948;28;20040;-89
2024/03/14 03:50:54;;;;;;;0.10;0.10;;;;;;;;;;5077146;28;20427;-89
2024/03/14 03:53:20;;;;;;;0.10;0.10;;;;;;;;;;5077348;28;20040;-90
2024/03/14 03:55:47;;;;;;;0.13;0.13;;;;;;;;;;5060496;28;20040;-90
2024/03/14 03:58:13;;;;;;;0.10;0.10;;;;;;;;;;5060777;28;20036;-90
2024/03/14 04:00:44;;;;;;;0.20;0.20;;;;;;;;;;5060526;28;20035;-90
2024/03/14 04:03:14;;;;;;;0.10;0.10;;;;;;;;;;5076845;28;20074;-90
2024/03/14 04:05:42;;;;;;;0.10;0.10;;;;;;;;;;5094144;28;20044;-89
2024/03/14 04:08:08;;;;;;;0.20;0.20;;;;;;;;;;5061017;28;20036;-90
2024/03/14 04:10:35;;;;;;;0.10;0.10;;;;;;;;;;5060188;28;20044;-90
2024/03/14 04:13:01;;;;;;;0.75;0.75;;;;;;;;;;5077479;28;20036;-88
2024/03/14 04:15:30;;;;;;;0.10;0.10;;;;;;;;;;5077138;28;20051;-89
2024/03/14 04:17:56;;;;;;;0.10;0.10;;;;;;;;;;5060697;28;20036;-90
2024/03/14 04:20:27;;;;;;;0.10;0.10;;;;;;;;;;5060320;28;20043;-91
2024/03/14 04:22:54;;;;;;;0.20;0.20;;;;;;;;;;5076761;28;20471;-90
2024/03/14 04:25:20;;;;;;;0.10;0.10;;;;;;;;;;5076903;28;20046;-90
2024/03/14 04:27:53;;;;;;;0.17;0.17;;;;;;;;;;5077114;28;20487;-90
2024/03/14 04:30:23;;;;;;;0.10;0.10;;;;;;;;;;5077414;28;20083;-90
2024/03/14 04:32:49;;;;;;;0.20;0.20;;;;;;;;;;5077567;28;20055;-90
2024/03/14 04:35:15;;;;;;;0.10;0.10;;;;;;;;;;5077220;28;20058;-90
2024/03/14 04:37:42;;;;;;;0.10;0.10;;;;;;;;;;5059829;28;20044;-90
2024/03/14 04:40:13;;;;;;;0.10;0.10;;;;;;;;;;5076792;28;20040;-90
2024/03/14 04:42:42;;;;;;;0.20;0.20;;;;;;;;;;5077226;28;20566;-89
2024/03/14 04:45:12;;;;;;;0.15;0.15;;;;;;;;;;5077142;28;20040;-90
2024/03/14 04:47:39;;;;;;;0.10;0.10;;;;;;;;;;5060038;28;20537;-89
2024/03/14 04:50:08;;;;;;;0.50;0.50;;;;;;;;;;5059806;28;20399;-90
2024/03/14 04:52:34;;;;;;;0.10;0.10;;;;;;;;;;5059928;28;20483;-90
2024/03/14 04:55:00;;;;;;;0.10;0.10;;;;;;;;;;5059656;28;20082;-90
2024/03/14 04:57:27;;;;;;;0.20;0.20;;;;;;;;;;5059329;28;20079;-90
2024/03/14 04:59:54;;;;;;;0.10;0.10;;;;;;;;;;5059964;28;20039;-90
2024/03/14 05:02:20;;;;;;;0.10;0.10;;;;;;;;;;5059612;28;20399;-90
2024/03/14 05:04:46;;;;;;;0.20;0.20;;;;;;;;;;5076166;28;20134;-90
2024/03/14 05:07:12;;;;;;;0.10;0.10;;;;;;;;;;5059048;28;20479;-89
2024/03/14 05:09:38;;;;;;;0.47;0.47;;;;;;;;;;5058899;28;20084;-90
2024/03/14 05:12:06;;;;;;;0.10;0.10;;;;;;;;;;5058954;28;20173;-90
2024/03/14 05:14:32;;;;;;;0.10;0.10;;;;;;;;;;5059230;28;20032;-90
2024/03/14 05:16:58;;;;;;;0.13;0.13;;;;;;;;;;5075399;28;20040;-89
2024/03/14 05:19:25;;;;;;;0.13;0.13;;;;;;;;;;5075506;28;20031;-89
2024/03/14 05:21:51;;;;;;;0.10;0.10;;;;;;;;;;5058833;28;20044;-89
2024/03/14 05:24:17;;;;;;;0.10;0.10;;;;;;;;;;5093438;28;20082;-89
2024/03/14 05:26:43;;;;;;;0.20;0.20;;;;;;;;;;5075959;28;20430;-89
2024/03/14 05:29:09;;;;;;;0.10;0.10;;;;;;;;;;5075403;28;20044;-89
2024/03/14 05:31:36;;;;;;;0.10;0.10;;;;;;;;;;5058543;28;20046;-89
2024/03/14 05:34:02;;;;;;;0.20;0.20;;;;;;;;;;5075745;28;20360;-89
2024/03/14 05:36:28;;;;;;;0.10;0.10;;;;;;;;;;5059483;28;20040;-89
2024/03/14 05:38:54;;;;;;;0.13;0.13;;;;;;;;;;5058444;28;20036;-89
2024/03/14 05:41:20;;;;;;;0.73;0.35;;;;;;;;;;5075162;28;20089;-89
2024/03/14 05:43:47;;;;;;;0.10;0.10;;;;;;;;;;5058766;28;20123;-88
2024/03/14 05:46:13;;;;;;;0.10;0.10;;;;;;;;;;5058780;28;20123;-90
2024/03/14 05:48:39;;;;;;;0.10;0.10;;;;;;;;;;5058703;28;20487;-91
2024/03/14 05:51:06;;;;;;;0.10;0.10;;;;;;;;;;5058619;28;20047;-90
2024/03/14 05:53:32;;;;;;;0.10;0.10;;;;;;;;;;5092455;28;20395;-91
2024/03/14 05:56:01;;;;;;;0.10;0.10;;;;;;;;;;5058889;28;20043;-90
2024/03/14 05:58:28;;;;;;;0.13;0.13;;;;;;;;;;5074462;28;20130;-91
2024/03/14 06:00:55;;;;;;;0.20;0.20;;;;;;;;;;5092339;28;20510;-91
2024/03/14 06:03:22;;;;;;;0.10;0.10;;;;;;;;;;5058597;28;20082;-90
2024/03/14 06:05:50;;;;;;;0.10;0.10;;;;;;;;;;5058418;28;20071;-90
2024/03/14 06:08:16;;;;;;;0.10;0.10;;;;;;;;;;5074791;28;20047;-87
2024/03/14 06:10:42;;;;;;;0.10;0.10;;;;;;;;;;5058279;28;20043;-91
2024/03/14 06:13:08;;;;;;;0.13;0.13;;;;;;;;;;5074958;28;20044;-86
2024/03/14 06:15:35;;;;;;;0.10;0.10;;;;;;;;;;5074726;28;20048;-86
2024/03/14 06:18:02;;;;;;;0.10;0.10;;;;;;;;;;5057828;28;20077;-87
2024/03/14 06:20:29;;;;;;;0.15;0.15;;;;;;;;;;5074431;28;20218;-87
2024/03/14 06:22:58;;;;;;;0.10;0.10;;;;;;;;;;5090939;28;20082;-87
2024/03/14 06:25:24;;;;;;;1.30;0.20;;;;;;;;;;5074569;28;20040;-87
2024/03/14 06:27:52;;;;;;;0.10;0.10;;;;;;;;;;5074065;28;20556;-88
2024/03/14 06:30:18;;;;;;;0.10;0.10;;;;;;;;;;5074278;28;20052;-87
2024/03/14 06:32:47;;;;;;;1.40;0.50;;;;;;;;;;5057430;28;20123;-88
2024/03/14 06:35:13;;;;;;;0.10;0.10;;;;;;;;;;5057655;28;20119;-87
2024/03/14 06:37:41;;;;;;;0.10;0.10;;;;;;;;;;5090943;28;20040;-87
2024/03/14 06:40:08;;;;;;;0.15;0.15;;;;;;;;;;5057802;28;20040;-86
2024/03/14 06:42:34;;;;;;;0.10;0.10;;;;;;;;;;5074317;28;20044;-86
2024/03/14 06:45:03;;;;;;;0.10;0.10;;;;;;;;;;5057376;28;20180;-86
2024/03/14 06:47:33;;;;;;;0.10;0.10;;;;;;;;;;5091983;28;20047;-86
2024/03/14 06:50:00;;;;;;;0.10;0.10;;;;;;;;;;5057542;28;20040;-92
2024/03/14 06:52:27;;;;;;;0.10;0.10;;;;;;;;;;5057481;28;20071;-83
2024/03/14 06:54:54;;;;;;;0.10;0.10;;;;;;;;;;5057419;28;20483;-87
2024/03/14 06:57:22;;;;;;;0.10;0.10;;;;;;;;;;5074548;28;20048;-89
2024/03/14 06:59:52;;;;;;;0.10;0.10;;;;;;;;;;5074223;28;20047;-89
2024/03/14 07:02:18;;;;;;;0.10;0.10;;;;;;;;;;5057999;28;20097;-87
2024/03/14 07:04:44;;;;;;;0.20;0.20;;;;;;;;;;5059244;28;20104;-94
2024/03/14 07:07:13;;;;;;;0.30;0.30;;;;;;;;;;5080399;28;20036;-93
2024/03/14 07:09:42;;;;;;;0.10;0.10;;;;;;;;;;5061014;28;20040;-94
2024/03/14 07:12:11;;;;;;;0.10;0.10;;;;;;;;;;5079975;28;20036;-92
2024/03/14 07:14:37;;;;;;;0.10;0.10;;;;;;;;;;5115041;28;20042;-92
2024/03/14 07:17:04;;;;;;;0.10;0.10;;;;;;;;;;5082238;28;20042;-95
2024/03/14 07:19:30;;;;;;;0.20;0.20;;;;;;;;;;5098551;28;20027;-94
2024/03/14 07:21:56;;;;;;;0.10;0.10;;;;;;;;;;5076749;28;20043;-85
2024/03/14 07:24:23;;;;;;;0.20;0.20;;;;;;;;;;5079091;28;20081;-85
2024/03/14 07:26:49;;;;;;;0.43;0.43;;;;;;;;;;5114511;28;20075;-85
2024/03/14 07:29:16;;;;;;;0.15;0.15;;;;;;;;;;5114493;28;20043;-87
2024/03/14 07:31:47;;;;;;;0.20;0.20;;;;;;;;;;5098224;28;20047;-88
2024/03/14 07:34:14;;;;;;;0.15;0.15;;;;;;;;;;5098527;28;20054;-86
2024/03/14 07:36:41;;;;;;;0.10;0.10;;;;;;;;;;5080712;28;20043;-89
2024/03/14 07:39:11;;;;;;;0.10;0.10;;;;;;;;;;5097584;28;20130;-87
2024/03/14 07:41:38;;;;;;;0.20;0.20;;;;;;;;;;5080902;28;20039;-88
2024/03/14 07:44:04;;;;;;;0.25;0.25;;;;;;;;;;5097716;28;20039;-87
2024/03/14 07:46:31;;;;;;;0.10;0.10;;;;;;;;;;5097546;28;20489;-86
2024/03/14 07:48:57;;;;;;;0.10;0.10;;;;;;;;;;5114067;28;20043;-86
2024/03/14 07:51:25;;;;;;;0.17;0.17;;;;;;;;;;5080520;28;20044;-88
2024/03/14 07:53:51;;;;;;;0.30;0.30;;;;;;;;;;5080452;28;20055;-88
2024/03/14 07:56:17;;;;;;;0.10;0.10;;;;;;;;;;5096894;28;20043;-87
2024/03/14 07:58:43;;;;;;;0.10;0.10;;;;;;;;;;5096966;28;20113;-87
2024/03/14 08:01:11;;;;;;;0.22;0.22;;;;;;;;;;5080268;28;20043;-88
2024/03/14 08:03:42;;;;;;;1.50;0.55;;;;;;;;;;5097036;28;20058;-87
2024/03/14 08:06:08;;;;;;;0.20;0.20;;;;;;;;;;5097738;28;20432;-86
2024/03/14 08:08:38;;;;;;;0.10;0.10;;;;;;;;;;5096641;28;20047;-87
2024/03/14 08:11:05;;;;;;;0.10;0.10;;;;;;;;;;5113528;28;20212;-87
2024/03/14 08:13:33;;;;;;;0.10;0.10;;;;;;;;;;5079619;28;20071;-86
2024/03/14 08:16:14;;;;;;;0.20;0.20;;;;;;;;;;5097142;28;20035;-88
2024/03/14 08:18:41;;;;;;;0.10;0.10;;;;;;;;;;5098397;28;20063;-87
2024/03/14 08:21:09;;;;;;;0.10;0.10;;;;;;;;;;5096474;28;20550;-87
2024/03/14 08:23:35;;;;;;;0.20;0.20;;;;;;;;;;5095989;28;20048;-87
2024/03/14 08:26:02;;;;;;;0.20;0.20;;;;;;;;;;5113439;28;20035;-87
2024/03/14 08:28:29;;;;;;;0.57;0.28;;;;;;;;;;5096389;28;20043;-88
2024/03/14 08:30:57;;;;;;;0.10;0.10;;;;;;;;;;5079479;28;20044;-88
2024/03/14 08:33:23;;;;;;;0.20;0.20;;;;;;;;;;5079611;28;20035;-87
2024/03/14 08:35:49;;;;;;;0.10;0.10;;;;;;;;;;5079407;28;20144;-87
2024/03/14 08:38:15;;;;;;;0.20;0.20;;;;;;;;;;5079278;28;20055;-87
2024/03/14 08:40:45;;;;;;;0.20;0.20;;;;;;;;;;5096387;28;20031;-87
2024/03/14 08:43:11;;;;;;;0.10;0.10;;;;;;;;;;5096241;28;20032;-88
2024/03/14 08:45:37;;;;;;;0.30;0.30;;;;;;;;;;5096201;28;20131;-88
2024/03/14 08:48:10;;;;;;;0.20;0.20;;;;;;;;;;5112996;28;20036;-87
2024/03/14 08:50:36;;;;;;;0.28;0.28;;;;;;;;;;5096278;28;20040;-87
2024/03/14 08:53:02;;;;;;;0.10;0.10;;;;;;;;;;5113335;28;20039;-88
2024/03/14 08:55:33;;;;;;;0.32;0.30;;;;;;;;;;5096200;28;20043;-88
2024/03/14 08:58:03;;;;;;;0.20;0.20;;;;;;;;;;5096994;28;20048;-88
2024/03/14 09:00:32;;;;;;;0.20;0.20;;;;;;;;;;5096124;28;20039;-87
2024/03/14 09:03:01;;;;;;;0.10;0.10;;;;;;;;;;5096538;28;20487;-87
2024/03/14 09:05:29;;;;;;;0.35;0.35;;;;;;;;;;5097669;28;20040;-86
2024/03/14 09:07:55;;;;;;;0.20;0.20;;;;;;;;;;5103019;28;20046;-87
2024/03/14 09:10:25;;;;;;;0.30;0.30;;;;;;;;;;5103348;28;20469;-87
2024/03/14 09:12:54;;;;;;;0.20;0.20;;;;;;;;;;5084641;28;20044;-86
2024/03/14 09:15:22;;;;;;;0.20;0.20;;;;;;;;;;5095605;28;20043;-88
2024/03/14 09:17:48;;;;;;;0.20;0.20;;;;;;;;;;5078539;28;20474;-88
2024/03/14 09:20:16;;;;;;;0.13;0.13;;;;;;;;;;5112382;28;20040;-88
2024/03/14 09:22:45;;;;;;;0.20;0.20;;;;;;;;;;5079027;28;20088;-88
2024/03/14 09:25:14;;;;;;;0.20;0.20;;;;;;;;;;5095614;28;20040;-87
2024/03/14 09:27:44;;;;;;;0.30;0.30;;;;;;;;;;5078575;28;20036;-87
2024/03/14 09:30:11;;;;;;;0.20;0.20;;;;;;;;;;5096108;28;20100;-87
2024/03/14 09:32:37;;;;;;;0.22;0.22;;;;;;;;;;5094748;28;20055;-87
2024/03/14 09:35:11;;;;;;;0.20;0.20;;;;;;;;;;5094259;28;20035;-87
2024/03/14 09:37:37;;;;;;;0.10;0.10;;;;;;;;;;5094860;28;20172;-87
2024/03/14 09:40:05;;;;;;;0.20;0.20;;;;;;;;;;5094670;28;20046;-87
2024/03/14 09:42:32;;;;;;;0.10;0.10;;;;;;;;;;5078137;28;20088;-87
2024/03/14 09:44:58;;;;;;;0.20;0.20;;;;;;;;;;5094610;28;20039;-87
2024/03/14 09:47:27;;;;;;;0.10;0.10;;;;;;;;;;5077900;28;20051;-88
2024/03/14 09:49:54;;;;;;;0.20;0.20;;;;;;;;;;5111593;28;20107;-88
2024/03/14 09:52:20;;;;;;;0.20;0.20;;;;;;;;;;5094523;28;20075;-88
2024/03/14 09:54:47;;;;;;;0.20;0.20;;;;;;;;;;5078822;28;20126;-88
2024/03/14 09:57:14;;;;;;;0.57;0.30;;;;;;;;;;5111435;28;20047;-87
2024/03/14 09:59:42;;;;;;;0.40;0.40;;;;;;;;;;5079077;28;20043;-88
2024/03/14 10:02:09;;;;;;;0.20;0.20;;;;;;;;;;5094480;28;20043;-87
2024/03/14 10:04:35;;;;;;;0.10;0.10;;;;;;;;;;5077791;28;20043;-88
2024/03/14 10:07:01;;;;;;;0.65;0.65;;;;;;;;;;5077790;28;20042;-88
2024/03/14 10:09:29;;;;;;;0.20;0.20;;;;;;;;;;5094595;28;20043;-88
2024/03/14 10:12:01;;;;;;;0.25;0.25;;;;;;;;;;5078424;28;20075;-87
2024/03/14 10:14:27;;;;;;;0.10;0.10;;;;;;;;;;5111817;28;20090;-87
2024/03/14 10:16:53;;;;;;;0.28;0.28;;;;;;;;;;5111423;28;20071;-88
2024/03/14 10:19:19;;;;;;;0.20;0.20;;;;;;;;;;5094427;28;20046;-87
2024/03/14 10:21:46;;;;;;;0.32;0.32;;;;;;;;;;5111504;28;20032;-86
2024/03/14 10:24:16;;;;;;;0.20;0.20;;;;;;;;;;5094640;28;20403;-87
2024/03/14 10:26:44;;;;;;;0.20;0.20;;;;;;;;;;5111461;28;20080;-87
2024/03/14 10:29:13;;;;;;;0.10;0.10;;;;;;;;;;5094302;28;20043;-87
2024/03/14 10:31:43;;;;;;;0.40;0.40;;;;;;;;;;5078168;28;20040;-88
2024/03/14 10:34:09;;;;;;;0.50;0.50;;;;;;;;;;5094613;28;20114;-87
2024/03/14 10:36:39;;;;;;;0.20;0.20;;;;;;;;;;5094349;28;20036;-87
2024/03/14 10:39:05;;;;;;;0.20;0.20;;;;;;;;;;5111435;28;20048;-87
2024/03/14 10:41:32;;;;;;;0.10;0.10;;;;;;;;;;5077617;28;20032;-87
2024/03/14 10:43:58;;;;;;;0.88;0.32;;;;;;;;;;5094455;28;20126;-87
2024/03/14 10:46:24;;;;;;;0.10;0.10;;;;;;;;;;5114680;28;20071;-87
2024/03/14 10:48:50;;;;;;;0.73;0.73;;;;;;;;;;5081498;28;20153;-87
2024/03/14 10:51:17;;;;;;;0.10;0.10;;;;;;;;;;5098435;28;20047;-87
2024/03/14 10:53:43;;;;;;;0.10;0.10;;;;;;;;;;5081582;28;20120;-87
2024/03/14 10:56:13;;;;;;;0.20;0.20;;;;;;;;;;5081415;28;20191;-87
2024/03/14 10:58:40;;;;;;;0.28;0.22;;;;;;;;;;5098285;28;20043;-88
2024/03/14 11:01:06;;;;;;;0.17;0.17;;;;;;;;;;5098149;28;20042;-87
2024/03/14 11:03:33;;;;;;;0.10;0.10;;;;;;;;;;5114795;28;20108;-87
2024/03/14 11:06:01;;;;;;;0.32;0.32;;;;;;;;;;5080999;28;20046;-87
2024/03/14 11:08:27;;;;;;;0.35;0.35;;;;;;;;;;5081211;28;20044;-87
2024/03/14 11:10:54;;;;;;;0.10;0.10;;;;;;;;;;5097793;28;20100;-89
2024/03/14 11:13:32;;;;;;;0.60;0.60;;;;;;;;;;5098031;28;20048;-87
2024/03/14 11:15:59;;;;;;;0.30;0.30;;;;;;;;;;5115034;28;20075;-87
2024/03/14 11:18:32;;;;;;;0.20;0.20;;;;;;;;;;5097566;28;20478;-87
2024/03/14 11:20:58;;;;;;;0.10;0.10;;;;;;;;;;5080945;28;20059;-87
2024/03/14 11:23:25;;;;;;;0.10;0.10;;;;;;;;;;5081078;28;20073;-87
2024/03/14 11:25:53;;;;;;;0.10;0.10;;;;;;;;;;5114624;28;20046;-87
2024/03/14 11:28:23;;;;;;;0.20;0.20;;;;;;;;;;5098320;28;20066;-88
2024/03/14 11:30:55;;;;;;;0.20;0.20;;;;;;;;;;5080874;28;20093;-87
2024/03/14 11:33:21;;;;;;;;;;;;;;;;;;5081248;28;20039;-88
2024/03/14 11:35:49;;;;;;;0.55;0.30;;;;;;;;;;5114547;28;19919;-87
2024/03/14 11:38:16;;;;;;;0.20;0.20;;;;;;;;;;5097457;28;20042;-87
2024/03/14 11:40:54;;;;;;;0.10;0.10;;;;;;;;;;5114197;28;20031;-87
2024/03/14 11:43:23;;;;;;;0.15;0.15;;;;;;;;;;5080360;28;20035;-87
2024/03/14 11:45:59;;;;;;;0.10;0.10;;;;;;;;;;5080570;28;20122;-87
2024/03/14 11:48:25;;;;;;;0.20;0.20;;;;;;;;;;5097861;28;20409;-87
2024/03/14 11:51:04;;;;;;;0.30;0.30;;;;;;;;;;5080279;28;20046;-87
2024/03/14 11:53:31;;;;;;;0.10;0.10;;;;;;;;;;5114277;28;20043;-87
2024/03/14 11:55:58;;;;;;;0.20;0.20;;;;;;;;;;5096681;28;20040;-87
2024/03/14 11:58:25;;;;;;;0.10;0.10;;;;;;;;;;5079943;28;20043;-87
2024/03/14 12:00:54;;;;;;;0.10;0.10;;;;;;;;;;5097285;28;20045;-88
2024/03/14 12:03:22;;;;;;;0.10;0.10;;;;;;;;;;5080488;28;20509;-87
2024/03/14 12:05:56;;;;;;;0.30;0.30;;;;;;;;;;5114027;28;20118;-87
2024/03/14 12:08:22;;;;;;;0.20;0.20;;;;;;;;;;5080372;28;20117;-87
2024/03/14 12:10:54;;;;;;;0.20;0.20;;;;;;;;;;5079836;28;20047;-87
2024/03/14 12:13:26;;;;;;;0.10;0.10;;;;;;;;;;5096766;28;20039;-88
2024/03/14 12:15:59;;;;;;;0.10;0.10;;;;;;;;;;5081017;28;20039;-87
2024/03/14 12:18:25;;;;;;;0.10;0.10;;;;;;;;;;5113630;28;20503;-87
2024/03/14 12:20:53;;;;;;;0.20;0.20;;;;;;;;;;5113409;28;20036;-87
2024/03/14 12:23:22;;;;;;;0.20;0.20;;;;;;;;;;5080353;28;20101;-88
2024/03/14 12:25:50;;;;;;;0.20;0.20;;;;;;;;;;5080088;28;20040;-86
2024/03/14 12:28:16;;;;;;;0.10;0.10;;;;;;;;;;5079922;28;20395;-87
2024/03/14 12:30:43;;;;;;;0.10;0.10;;;;;;;;;;5079501;28;20074;-87
2024/03/14 12:33:12;;;;;;;0.10;0.10;;;;;;;;;;5096492;28;20620;-87
2024/03/14 12:35:40;;;;;;;0.10;0.10;;;;;;;;;;5079408;28;20051;-88
2024/03/14 12:38:06;;;;;;;0.20;0.20;;;;;;;;;;5096363;28;20043;-87
2024/03/14 12:40:32;;;;;;;0.10;0.10;;;;;;;;;;5096171;28;20043;-87
2024/03/14 12:42:58;;;;;;;0.30;0.30;;;;;;;;;;5112927;28;20105;-87
2024/03/14 12:45:24;;;;;;;0.20;0.20;;;;;;;;;;5113023;28;20069;-88
2024/03/14 12:47:52;;;;;;;0.10;0.10;;;;;;;;;;5096330;28;20499;-87
2024/03/14 12:50:22;;;;;;;0.10;0.10;;;;;;;;;;5095925;28;20177;-87
2024/03/14 12:53:06;;;;;;;0.20;0.20;;;;;;;;;;5096095;28;20082;-88
2024/03/14 12:55:33;;;;;;;0.25;0.25;;;;;;;;;;5095751;28;20124;-87
2024/03/14 12:58:03;;;;;;;0.10;0.10;;;;;;;;;;5095891;28;20203;-87
2024/03/14 13:00:29;;;;;;;0.10;0.10;;;;;;;;;;5113018;28;20137;-87
2024/03/14 13:02:56;;;;;;;0.10;0.10;;;;;;;;;;5095497;28;20568;-87
2024/03/14 13:05:25;;;;;;;0.20;0.20;;;;;;;;;;5095952;28;20118;-87
2024/03/14 13:08:04;;;;;;;0.20;0.20;;;;;;;;;;5078838;28;20081;-88
2024/03/14 13:10:37;;;;;;;0.80;0.22;;;;;;;;;;5078689;28;20100;-87
2024/03/14 13:13:04;;;;;;;0.30;0.30;;;;;;;;;;5096859;28;20127;-87
2024/03/14 13:15:33;;;;;;;0.10;0.10;;;;;;;;;;5095598;28;20062;-87
2024/03/14 13:18:04;;;;;;;0.20;0.20;;;;;;;;;;5112450;28;20130;-87
2024/03/14 13:20:31;;;;;;;0.10;0.10;;;;;;;;;;5079073;28;20042;-87
2024/03/14 13:22:58;;;;;;;0.20;0.20;;;;;;;;;;5078467;28;20126;-87
2024/03/14 13:25:24;;;;;;;0.10;0.10;;;;;;;;;;5112501;28;20390;-87
2024/03/14 13:27:50;;;;;;;0.20;0.20;;;;;;;;;;5095457;28;20047;-87
2024/03/14 13:30:19;;;;;;;0.20;0.20;;;;;;;;;;5112332;28;20040;-87
2024/03/14 13:32:54;;;;;;;0.20;0.20;;;;;;;;;;5095074;28;20078;-87
2024/03/14 13:35:22;;;;;;;0.10;0.10;;;;;;;;;;5112340;28;20051;-87
2024/03/14 13:37:49;;;;;;;0.20;0.20;;;;;;;;;;5078414;28;20111;-87
2024/03/14 13:40:16;;;;;;;0.10;0.10;;;;;;;;;;5095167;28;20039;-87
2024/03/14 13:42:43;;;;;;;0.10;0.10;;;;;;;;;;5095239;28;20043;-87
2024/03/14 13:45:16;;;;;;;0.10;0.10;;;;;;;;;;5094962;28;20118;-88
2024/03/14 13:47:45;;;;;;;0.10;0.10;;;;;;;;;;5095161;28;20428;-87
2024/03/14 13:50:12;;;;;;;0.10;0.10;;;;;;;;;;5078675;28;20040;-87
2024/03/14 13:52:38;;;;;;;0.20;0.20;;;;;;;;;;5094851;28;20039;-88
2024/03/14 13:55:19;;;;;;;0.20;0.20;;;;;;;;;;5094880;28;20040;-87
2024/03/14 13:57:46;;;;;;;0.20;0.20;;;;;;;;;;5094658;28;20036;-87
2024/03/14 14:00:22;;;;;;;0.20;0.20;;;;;;;;;;5094814;28;20479;-88
2024/03/14 14:02:49;;;;;;;0.20;0.20;;;;;;;;;;5111466;28;20047;-88
2024/03/14 14:05:20;;;;;;;0.30;0.30;;;;;;;;;;5094727;28;20039;-87
2024/03/14 14:07:47;;;;;;;0.20;0.20;;;;;;;;;;5095449;28;20043;-87
2024/03/14 14:10:14;;;;;;;0.20;0.20;;;;;;;;;;5094705;28;20085;-87
2024/03/14 14:12:41;;;;;;;0.20;0.20;;;;;;;;;;5094504;28;20044;-87
2024/03/14 14:15:08;;;;;;;0.10;0.10;;;;;;;;;;5094696;28;20043;-87
2024/03/14 14:17:36;;;;;;;0.10;0.10;;;;;;;;;;5094308;28;20040;-87
2024/03/14 14:20:08;;;;;;;0.10;0.10;;;;;;;;;;5093990;28;20428;-87
2024/03/14 14:22:34;;;;;;;0.20;0.20;;;;;;;;;;5078510;28;20035;-88
2024/03/14 14:25:00;;;;;;;0.10;0.10;;;;;;;;;;5094392;28;20172;-88
2024/03/14 14:27:26;;;;;;;0.20;0.20;;;;;;;;;;5111357;28;20039;-88
2024/03/14 14:29:52;;;;;;;0.20;0.20;;;;;;;;;;5094710;28;20039;-88
2024/03/14 14:32:18;;;;;;;0.10;0.10;;;;;;;;;;5094568;28;20146;-87
2024/03/14 14:34:44;;;;;;;0.10;0.10;;;;;;;;;;5094552;28;20508;-87
2024/03/14 14:37:11;;;;;;;0.13;0.13;;;;;;;;;;5094428;28;20044;-87
2024/03/14 14:39:37;;;;;;;0.30;0.30;;;;;;;;;;5111232;28;20047;-87
2024/03/14 14:42:03;;;;;;;0.20;0.20;;;;;;;;;;5077362;28;20043;-87
2024/03/14 14:44:29;;;;;;;0.20;0.20;;;;;;;;;;5111251;28;20433;-88